Terminal Aerodrome Forecast
Issued by NWS

Home | Current Version | Previous Version | Text Only | Print | Product List | Glossary On
Versions: 1 2 3 4 5 6 7 8 9 10 11 12 13 14 15 16
000
FTUS43 KPAH 261100
TAFCGI
TAF
KCGI 261120Z 2612/2712 32008KT P6SM SCT015
     FM261800 22006KT P6SM SCT025 BKN100
     FM270000 30007KT P6SM SCT020 BKN040=

USA.gov is the U.S. government's official web portal to all federal, state and local government web resources and services.